Time;durP1;ratioP1;P1;durP2;ratioP2;P2;SDS_P1;SDS_P2;PMS_P1;PMS_P2;Temp;Humidity;BMP_temperature;BMP_pressure;BME280_temperature;BME280_humidity;BME280_pressure;Samples;Min_cycle;Max_cycle;Signal;HPM_P1;HPM_P2
2021/12/04 00:00:47;;;;;;;4.75;3.00;;;3.50;79.20;;;;;;4995441;28;20049;-76
2021/12/04 00:03:14;;;;;;;4.35;2.72;;;3.50;79.90;;;;;;5013043;28;20426;-75
2021/12/04 00:05:46;;;;;;;4.05;2.47;;;3.50;79.90;;;;;;5014333;28;20041;-77
2021/12/04 00:08:13;;;;;;;3.88;2.72;;;3.50;79.70;;;;;;5014497;28;20034;-77
2021/12/04 00:10:39;;;;;;;2.65;2.42;;;3.50;79.50;;;;;;5021647;28;20394;-77
2021/12/04 00:13:05;;;;;;;8.20;3.20;;;3.50;79.70;;;;;;5011725;28;20073;-77
2021/12/04 00:15:32;;;;;;;2.70;2.50;;;3.50;80.40;;;;;;5012266;28;20033;-77
2021/12/04 00:17:59;;;;;;;5.13;3.03;;;3.50;80.70;;;;;;5012776;28;20045;-76
2021/12/04 00:20:30;;;;;;;2.28;2.08;;;3.40;81.10;;;;;;5028904;28;20048;-77
2021/12/04 00:22:59;;;;;;;5.50;2.63;;;3.40;82.50;;;;;;5032392;28;20034;-77
2021/12/04 00:25:26;;;;;;;3.15;2.55;;;3.30;83.10;;;;;;5031467;28;20041;-76
2021/12/04 00:27:53;;;;;;;3.92;2.63;;;3.20;84.20;;;;;;5040233;28;20030;-76
2021/12/04 00:30:19;;;;;;;2.95;2.45;;;3.20;85.00;;;;;;5014092;28;20034;-76
2021/12/04 00:32:55;;;;;;;3.70;3.10;;;3.10;85.40;;;;;;5032564;28;20034;-75
2021/12/04 00:35:34;;;;;;;2.78;2.50;;;3.10;85.90;;;;;;5031783;28;20045;-75
2021/12/04 00:51:26;;;;;;;4.10;2.78;;;3.10;84.70;;;;;;5013377;28;20042;-77
2021/12/04 00:53:54;;;;;;;8.48;3.05;;;3.10;84.40;;;;;;5031902;28;20475;-76
2021/12/04 00:56:22;;;;;;;2.90;2.53;;;3.10;84.20;;;;;;5013928;28;20044;-76
2021/12/04 00:58:49;;;;;;;3.65;2.78;;;3.10;84.80;;;;;;5031771;28;20029;-76
2021/12/04 01:01:16;;;;;;;4.78;2.53;;;3.20;84.00;;;;;;5031754;28;20040;-76
2021/12/04 01:03:42;;;;;;;4.00;2.33;;;3.20;83.80;;;;;;5031883;28;20040;-75
2021/12/04 01:06:09;;;;;;;2.60;2.40;;;3.20;83.40;;;;;;5031052;28;20048;-76
2021/12/04 01:08:35;;;;;;;2.83;2.50;;;3.30;83.30;;;;;;5034149;28;20034;-76
2021/12/04 01:11:02;;;;;;;3.97;2.45;;;3.30;83.60;;;;;;5036095;28;20034;-76
2021/12/04 01:13:33;;;;;;;2.90;2.10;;;3.30;82.80;;;;;;5034968;28;20050;-76
2021/12/04 01:15:59;;;;;;;3.50;2.20;;;3.30;83.30;;;;;;5035574;28;20048;-76
2021/12/04 01:18:25;;;;;;;3.30;2.42;;;3.30;83.70;;;;;;5034504;28;20277;-76
2021/12/04 01:20:52;;;;;;;7.03;2.42;;;3.40;82.70;;;;;;5035304;28;20033;-76
2021/12/04 01:23:18;;;;;;;2.28;2.08;;;3.40;83.60;;;;;;5016840;28;20041;-76
2021/12/04 01:25:45;;;;;;;5.07;2.60;;;3.40;84.10;;;;;;5035421;28;20041;-76
2021/12/04 01:28:11;;;;;;;2.55;1.80;;;3.30;85.20;;;;;;5017113;28;20078;-76
2021/12/04 01:30:38;;;;;;;3.22;2.03;;;3.30;85.70;;;;;;5017597;28;20044;-75
2021/12/04 01:33:04;;;;;;;3.35;1.98;;;3.30;86.30;;;;;;5017897;28;20030;-75
2021/12/04 01:35:31;;;;;;;2.47;1.75;;;3.30;86.70;;;;;;5034648;28;20037;-76
2021/12/04 01:37:57;;;;;;;2.28;1.77;;;3.30;87.50;;;;;;5017234;28;20037;-75
2021/12/04 01:40:24;;;;;;;2.45;2.17;;;3.20;87.80;;;;;;5034122;28;20037;-76
2021/12/04 01:42:50;;;;;;;6.10;1.73;;;3.10;88.50;;;;;;5034902;28;20034;-76
2021/12/04 01:45:18;;;;;;;4.30;2.30;;;3.00;88.80;;;;;;5033951;28;20034;-76
2021/12/04 01:47:45;;;;;;;4.15;2.30;;;3.00;89.60;;;;;;5017494;28;20040;-76
2021/12/04 01:50:11;;;;;;;4.75;2.45;;;2.90;90.10;;;;;;5034005;28;20030;-77
2021/12/04 01:52:38;;;;;;;4.18;2.22;;;2.90;90.60;;;;;;5017416;28;20064;-76
2021/12/04 01:55:05;;;;;;;3.17;2.38;;;2.80;90.40;;;;;;5000839;28;20050;-76
2021/12/04 01:57:32;;;;;;;4.00;2.65;;;2.70;90.80;;;;;;5016206;28;20442;-76
2021/12/04 01:59:58;;;;;;;4.10;2.20;;;2.70;91.30;;;;;;5034577;28;20025;-76
2021/12/04 02:02:24;;;;;;;2.17;1.88;;;2.60;91.70;;;;;;5015655;28;20033;-76
2021/12/04 02:04:50;;;;;;;3.42;2.30;;;2.60;92.20;;;;;;5034495;28;20037;-76
2021/12/04 02:07:19;;;;;;;6.38;2.75;;;2.50;92.20;;;;;;5016067;28;20391;-75
2021/12/04 02:09:45;;;;;;;2.47;2.03;;;2.40;92.60;;;;;;5034366;28;20048;-76
2021/12/04 02:12:12;;;;;;;4.93;3.35;;;2.40;93.30;;;;;;5033513;28;20037;-77
2021/12/04 02:14:40;;;;;;;2.55;2.30;;;2.30;93.60;;;;;;5034789;28;20359;-75
2021/12/04 02:17:07;;;;;;;3.00;2.58;;;2.30;94.10;;;;;;5034494;28;20034;-75
2021/12/04 02:19:33;;;;;;;4.63;2.05;;;2.20;95.60;;;;;;5031934;28;20025;-76
2021/12/04 02:22:00;;;;;;;4.07;2.55;;;2.10;96.50;;;;;;5016661;28;20030;-76
2021/12/04 02:24:26;;;;;;;3.90;2.83;;;2.00;98.10;;;;;;5033334;28;20033;-76
2021/12/04 02:26:52;;;;;;;3.40;2.90;;;1.80;99.90;;;;;;5034095;28;20049;-76
2021/12/04 02:29:19;;;;;;;2.75;2.35;;;1.70;99.90;;;;;;5033515;28;20034;-76
2021/12/04 02:31:55;;;;;;;3.65;2.85;;;1.50;99.90;;;;;;5034228;28;20029;-75
2021/12/04 02:34:28;;;;;;;3.22;2.78;;;1.40;99.90;;;;;;5033348;28;20375;-76
2021/12/04 02:36:56;;;;;;;3.17;2.88;;;1.20;99.90;;;;;;5016822;28;20044;-74
2021/12/04 02:39:34;;;;;;;15.50;3.97;;;1.10;99.90;;;;;;5015216;28;20398;-75
2021/12/04 02:42:01;;;;;;;3.40;2.50;;;1.00;99.90;;;;;;5033848;28;20509;-74
2021/12/04 02:44:36;;;;;;;6.43;3.42;;;0.90;99.90;;;;;;5033241;28;20029;-74
2021/12/04 02:47:03;;;;;;;4.35;3.25;;;0.80;99.90;;;;;;5033740;28;20038;-73
2021/12/04 02:49:30;;;;;;;6.63;3.10;;;0.80;99.90;;;;;;5032417;28;20491;-73
2021/12/04 02:52:07;;;;;;;6.05;4.60;;;0.80;99.90;;;;;;5033690;28;20498;-72
2021/12/04 02:54:35;;;;;;;4.20;3.80;;;0.70;99.90;;;;;;5033120;28;20374;-73
2021/12/04 02:57:03;;;;;;;3.92;3.25;;;0.70;99.90;;;;;;5033960;28;20036;-73
2021/12/04 02:59:29;;;;;;;4.22;3.80;;;0.70;99.90;;;;;;5032745;28;20037;-73
2021/12/04 03:01:57;;;;;;;5.70;3.78;;;0.70;99.90;;;;;;5033459;28;20356;-73
2021/12/04 03:04:25;;;;;;;8.95;4.63;;;0.70;99.90;;;;;;5015057;28;20045;-73
2021/12/04 03:06:51;;;;;;;9.20;3.95;;;0.70;99.90;;;;;;5033389;28;20042;-73
2021/12/04 03:09:18;;;;;;;5.47;4.70;;;0.70;99.90;;;;;;5032727;28;20029;-73
2021/12/04 03:11:44;;;;;;;4.30;3.97;;;0.70;99.90;;;;;;5032847;28;20042;-73
2021/12/04 03:14:12;;;;;;;6.20;4.57;;;0.70;99.90;;;;;;5033122;28;20045;-73
2021/12/04 03:16:40;;;;;;;5.63;4.82;;;0.80;99.90;;;;;;5033036;28;20041;-73
2021/12/04 03:19:06;;;;;;;4.85;4.35;;;0.80;99.90;;;;;;5033271;28;20033;-73
2021/12/04 03:21:34;;;;;;;5.95;4.72;;;0.80;99.90;;;;;;5032146;28;20028;-74
2021/12/04 03:24:04;;;;;;;7.10;5.75;;;0.80;99.90;;;;;;5014988;28;20040;-74
2021/12/04 03:26:31;;;;;;;5.75;5.00;;;0.90;99.90;;;;;;5032006;28;20048;-74
2021/12/04 03:29:01;;;;;;;4.15;3.63;;;0.90;99.90;;;;;;5032963;28;20032;-74
2021/12/04 03:42:12;;;;;;;9.25;6.35;;;0.90;99.90;;;;;;5014442;28;20049;-76
2021/12/04 03:44:39;;;;;;;6.95;5.97;;;0.90;99.90;;;;;;5031838;28;20485;-76
2021/12/04 03:47:06;;;;;;;6.57;5.47;;;1.00;99.90;;;;;;5032646;28;20045;-74
2021/12/04 03:49:33;;;;;;;74.40;64.53;;;1.00;99.90;;;;;;5031697;28;20473;-75
2021/12/04 03:51:59;;;;;;;24.88;17.10;;;1.00;99.90;;;;;;5032495;28;20029;-75
2021/12/04 03:54:25;;;;;;;92.20;78.38;;;1.00;99.90;;;;;;5031615;28;20044;-75
2021/12/04 03:57:02;;;;;;;21.45;17.58;;;1.00;99.90;;;;;;5032434;28;20044;-75
2021/12/04 03:59:29;;;;;;;7.60;6.90;;;1.10;99.90;;;;;;5031943;28;20049;-75
2021/12/04 04:01:55;;;;;;;11.93;10.68;;;1.10;99.90;;;;;;5032350;28;20045;-76
2021/12/04 04:04:21;;;;;;;53.05;44.25;;;1.10;99.90;;;;;;5031862;28;20033;-76
2021/12/04 04:06:48;;;;;;;575.00;512.15;;;1.20;99.90;;;;;;5032328;28;20239;-75
2021/12/04 04:09:14;;;;;;;26.63;21.17;;;1.20;99.90;;;;;;5034025;28;20041;-74
2021/12/04 04:11:41;;;;;;;438.45;276.65;;;1.20;99.90;;;;;;5015488;28;20034;-75
2021/12/04 04:14:07;;;;;;;18.38;16.60;;;1.20;99.90;;;;;;5032524;28;20045;-75
2021/12/04 04:16:37;;;;;;;33.58;30.20;;;1.30;99.90;;;;;;5031210;28;20033;-75
2021/12/04 04:19:03;;;;;;;9.68;8.70;;;1.30;99.90;;;;;;5014588;28;20394;-75
2021/12/04 04:21:30;;;;;;;49.33;44.20;;;1.30;99.90;;;;;;5031397;28;20032;-75
2021/12/04 04:23:56;;;;;;;123.95;102.15;;;1.40;99.90;;;;;;5031862;28;20029;-74
2021/12/04 04:26:22;;;;;;;34.15;27.52;;;1.40;99.90;;;;;;5031233;28;20045;-75
2021/12/04 04:28:49;;;;;;;120.50;97.25;;;1.40;99.90;;;;;;5013784;28;20041;-75
2021/12/04 04:31:15;;;;;;;43.22;34.97;;;1.40;99.90;;;;;;5032136;28;20485;-75
2021/12/04 04:33:44;;;;;;;56.97;42.33;;;1.50;99.90;;;;;;5031277;28;20036;-75
2021/12/04 05:00:25;;;;;;;124.10;82.22;;;1.70;99.90;;;;;;5031793;28;20033;-75
2021/12/04 05:11:10;;;;;;;9.43;8.40;;;1.80;99.90;;;;;;5031617;28;20038;-75
2021/12/04 05:13:38;;;;;;;7.93;6.47;;;1.80;99.90;;;;;;5030835;28;20409;-75
2021/12/04 05:16:13;;;;;;;46.50;39.40;;;1.80;99.90;;;;;;5031575;28;20048;-74
2021/12/04 05:19:12;;;;;;;20.08;17.77;;;1.80;99.90;;;;;;5030607;28;20044;-74
2021/12/04 05:21:31;;;;;;;11.45;10.07;;;1.80;99.90;;;;;;5030036;28;20045;-75
2021/12/04 05:23:57;;;;;;;8.93;8.05;;;1.90;99.90;;;;;;5031644;28;20040;-74
2021/12/04 05:26:26;;;;;;;17.92;16.10;;;1.90;99.90;;;;;;5012681;28;20056;-77
2021/12/04 05:28:55;;;;;;;19.35;16.42;;;1.90;99.90;;;;;;5013804;28;20033;-74
2021/12/04 05:31:21;;;;;;;27.80;24.98;;;1.90;99.90;;;;;;5031175;28;20040;-77
2021/12/04 05:33:48;;;;;;;19.27;17.20;;;1.90;99.90;;;;;;5029219;28;20041;-74
2021/12/04 05:36:15;;;;;;;8.93;8.10;;;1.90;99.90;;;;;;5031312;28;20037;-75
2021/12/04 05:38:41;;;;;;;9.65;8.65;;;2.00;99.90;;;;;;5030354;28;20049;-75
2021/12/04 05:41:09;;;;;;;9.30;8.15;;;2.00;99.90;;;;;;5031463;28;20128;-74
2021/12/04 05:43:36;;;;;;;13.52;12.23;;;2.00;99.90;;;;;;5030017;28;20040;-75
2021/12/04 05:46:13;;;;;;;11.10;9.98;;;2.00;99.90;;;;;;5031258;28;20046;-75
2021/12/04 05:53:55;;;;;;;9.45;8.55;;;2.10;99.90;;;;;;5014837;28;20044;-75
2021/12/04 05:56:22;;;;;;;9.05;8.23;;;2.10;99.90;;;;;;5035067;28;20052;-78
2021/12/04 05:58:49;;;;;;;8.98;8.18;;;2.10;99.90;;;;;;5016684;28;20033;-75
2021/12/04 06:01:17;;;;;;;10.02;8.52;;;2.10;99.90;;;;;;5034904;28;20025;-75
2021/12/04 06:03:43;;;;;;;9.82;8.40;;;2.10;99.90;;;;;;5033713;28;20040;-75
2021/12/04 06:06:10;;;;;;;9.45;8.57;;;2.20;99.90;;;;;;5034637;28;20030;-76
2021/12/04 06:08:36;;;;;;;9.60;8.65;;;2.20;99.90;;;;;;5033789;28;20037;-75
2021/12/04 06:11:02;;;;;;;16.30;8.57;;;2.20;99.90;;;;;;5034597;28;20029;-75
2021/12/04 06:13:29;;;;;;;8.82;8.02;;;2.20;99.90;;;;;;5033420;28;20053;-76
2021/12/04 06:15:56;;;;;;;10.02;9.10;;;2.20;99.90;;;;;;5034768;28;20489;-76
2021/12/04 06:18:22;;;;;;;10.60;9.63;;;2.20;99.90;;;;;;5034563;28;20025;-76
2021/12/04 06:23:35;;;;;;;18.13;14.35;;;2.20;99.90;;;;;;5033697;28;20040;-76
2021/12/04 06:26:03;;;;;;;11.00;9.85;;;2.20;99.90;;;;;;5034226;28;20129;-76
2021/12/04 06:28:29;;;;;;;12.20;11.10;;;2.20;99.90;;;;;;5033100;28;20061;-76
2021/12/04 06:30:55;;;;;;;12.63;11.35;;;2.20;99.90;;;;;;5016894;28;20038;-76
2021/12/04 06:33:22;;;;;;;11.68;10.57;;;2.30;99.90;;;;;;5034118;28;20065;-75
2021/12/04 06:35:48;;;;;;;13.75;12.55;;;2.30;99.90;;;;;;5033334;28;20048;-75
2021/12/04 06:38:17;;;;;;;15.05;11.48;;;2.40;99.90;;;;;;5034355;28;20029;-75
2021/12/04 06:40:44;;;;;;;13.85;11.23;;;2.30;99.90;;;;;;5033231;28;20029;-75
2021/12/04 06:43:12;;;;;;;14.43;13.00;;;2.30;99.90;;;;;;5034084;28;20032;-74
2021/12/04 06:45:41;;;;;;;15.40;12.30;;;2.40;99.90;;;;;;5033052;28;20045;-75
2021/12/04 06:48:11;;;;;;;13.48;12.23;;;2.40;99.90;;;;;;5033740;28;20034;-74
2021/12/04 06:50:51;;;;;;;15.03;13.50;;;2.50;99.90;;;;;;5033173;28;20489;-74
2021/12/04 06:53:26;;;;;;;13.45;12.18;;;2.50;99.90;;;;;;5034045;28;20037;-74
2021/12/04 06:55:55;;;;;;;14.63;12.15;;;2.50;99.90;;;;;;5033498;28;20033;-74
2021/12/04 06:58:24;;;;;;;14.52;13.23;;;2.50;99.90;;;;;;5033649;28;20042;-75
2021/12/04 07:00:50;;;;;;;14.48;13.07;;;2.60;99.90;;;;;;5032978;28;20044;-74
2021/12/04 07:03:17;;;;;;;15.27;13.52;;;2.60;99.90;;;;;;5033453;28;20026;-74
2021/12/04 07:05:44;;;;;;;15.98;14.50;;;2.60;99.90;;;;;;5032147;28;20029;-75
2021/12/04 07:08:11;;;;;;;15.05;13.63;;;2.60;99.90;;;;;;5015470;28;20045;-74
2021/12/04 07:10:38;;;;;;;14.90;13.35;;;2.60;99.90;;;;;;5032684;28;20030;-76
2021/12/04 07:13:05;;;;;;;18.80;14.23;;;2.70;99.90;;;;;;5033434;28;20041;-76
2021/12/04 07:15:32;;;;;;;15.63;14.20;;;2.70;99.90;;;;;;5032571;28;20052;-76
2021/12/04 07:18:00;;;;;;;17.98;15.95;;;2.80;99.90;;;;;;5033448;28;20033;-76
2021/12/04 07:20:27;;;;;;;15.85;14.13;;;2.80;99.90;;;;;;5033222;28;20034;-77
2021/12/04 07:22:53;;;;;;;17.45;15.80;;;2.80;99.90;;;;;;5027596;28;20026;-76
2021/12/04 07:25:20;;;;;;;15.02;13.55;;;2.80;99.90;;;;;;5021539;28;20045;-76
2021/12/04 07:27:47;;;;;;;15.32;14.02;;;2.90;99.90;;;;;;5012603;28;20030;-76
2021/12/04 07:30:14;;;;;;;14.85;13.52;;;2.90;99.90;;;;;;5013002;28;20478;-76
2021/12/04 07:32:40;;;;;;;17.08;13.98;;;3.00;99.90;;;;;;5011977;28;20034;-76
2021/12/04 07:35:07;;;;;;;15.82;14.27;;;3.00;99.90;;;;;;5012723;28;20025;-75
2021/12/04 07:37:34;;;;;;;15.05;13.80;;;3.10;99.90;;;;;;5011836;28;20037;-76
2021/12/04 07:40:00;;;;;;;16.38;14.77;;;3.10;99.90;;;;;;5013013;28;20026;-76
2021/12/04 07:42:26;;;;;;;15.00;13.60;;;3.10;99.90;;;;;;5013567;28;20022;-76
2021/12/04 07:44:52;;;;;;;17.25;15.07;;;3.20;99.90;;;;;;5012143;28;20411;-76
2021/12/04 07:47:18;;;;;;;15.90;14.63;;;3.20;99.90;;;;;;4995365;28;20049;-76
2021/12/04 07:49:45;;;;;;;16.05;14.30;;;3.20;99.90;;;;;;4995783;28;20037;-75
2021/12/04 07:52:11;;;;;;;18.10;16.38;;;3.30;99.90;;;;;;5012777;28;20037;-76
2021/12/04 07:54:38;;;;;;;15.52;14.23;;;3.30;99.90;;;;;;4993810;28;20040;-76
2021/12/04 07:57:05;;;;;;;15.13;13.60;;;3.30;99.90;;;;;;5012474;28;20026;-76
2021/12/04 07:59:31;;;;;;;16.80;15.20;;;3.40;99.90;;;;;;5011607;28;20034;-78
2021/12/04 08:01:58;;;;;;;16.55;14.75;;;3.40;99.90;;;;;;5012220;28;20101;-76
2021/12/04 08:04:25;;;;;;;15.55;14.18;;;3.40;99.90;;;;;;5013093;28;20041;-77
2021/12/04 08:06:53;;;;;;;14.77;13.45;;;3.40;99.90;;;;;;5011395;28;20349;-76
2021/12/04 08:09:20;;;;;;;14.07;12.75;;;3.40;99.90;;;;;;5012599;28;20386;-76
2021/12/04 08:11:49;;;;;;;14.43;13.10;;;3.50;99.90;;;;;;5008896;28;20034;-76
2021/12/04 08:14:17;;;;;;;14.23;13.00;;;3.50;99.90;;;;;;5012388;28;20042;-76
2021/12/04 08:16:44;;;;;;;13.63;12.32;;;3.50;99.90;;;;;;5011560;28;20041;-76
2021/12/04 08:19:10;;;;;;;15.18;13.68;;;3.50;99.90;;;;;;5012931;28;20480;-76
2021/12/04 08:21:37;;;;;;;15.73;14.18;;;3.50;99.90;;;;;;5011630;28;20030;-76
2021/12/04 08:24:06;;;;;;;23.10;14.80;;;3.50;99.90;;;;;;5012433;28;20030;-76
2021/12/04 08:26:34;;;;;;;16.55;15.07;;;3.50;99.90;;;;;;4990350;28;20057;-78
2021/12/04 08:29:01;;;;;;;16.38;14.88;;;3.50;99.90;;;;;;4989962;28;20046;-76
2021/12/04 08:31:27;;;;;;;16.83;15.10;;;3.60;99.90;;;;;;5011774;28;20033;-76
2021/12/04 08:33:54;;;;;;;17.27;15.60;;;3.60;99.90;;;;;;5010799;28;20038;-76
2021/12/04 08:36:21;;;;;;;17.05;15.25;;;3.60;99.90;;;;;;5012018;28;20034;-76
2021/12/04 08:38:48;;;;;;;18.83;17.02;;;3.70;99.90;;;;;;5011017;28;20410;-76
2021/12/04 08:41:18;;;;;;;19.13;17.23;;;3.70;99.90;;;;;;4993681;28;20050;-75
2021/12/04 08:43:45;;;;;;;16.98;15.48;;;3.70;99.90;;;;;;5011086;28;20041;-76
2021/12/04 08:46:13;;;;;;;19.25;17.13;;;3.70;99.90;;;;;;5011644;28;20033;-76
2021/12/04 08:48:40;;;;;;;20.20;18.30;;;3.70;99.90;;;;;;5010878;28;20046;-76
2021/12/04 08:51:07;;;;;;;17.52;15.93;;;3.80;99.90;;;;;;5011612;28;20459;-76
2021/12/04 08:53:33;;;;;;;18.92;17.15;;;3.80;99.90;;;;;;5011313;28;20049;-78
2021/12/04 08:55:59;;;;;;;20.33;18.33;;;3.80;99.90;;;;;;5011899;28;20411;-76
2021/12/04 08:58:26;;;;;;;19.17;17.50;;;3.90;99.90;;;;;;5011960;28;20034;-76
2021/12/04 09:01:01;;;;;;;19.45;17.77;;;3.80;99.90;;;;;;4993193;28;20037;-76
2021/12/04 09:03:34;;;;;;;19.83;17.73;;;3.90;99.90;;;;;;4994146;28;20049;-76
2021/12/04 09:06:02;;;;;;;19.55;17.80;;;3.90;99.90;;;;;;5011979;28;20355;-77
2021/12/04 09:08:29;;;;;;;20.70;18.08;;;4.00;99.90;;;;;;5012188;28;20038;-76
2021/12/04 09:11:00;;;;;;;18.75;16.98;;;4.00;99.90;;;;;;5011184;28;20060;-76
2021/12/04 09:13:30;;;;;;;20.13;17.77;;;4.00;99.90;;;;;;4990397;28;20057;-76
2021/12/04 09:15:57;;;;;;;19.60;17.80;;;4.00;99.90;;;;;;4991912;28;20464;-76
2021/12/04 09:18:24;;;;;;;24.50;18.33;;;4.10;99.90;;;;;;4991882;28;20097;-76
2021/12/04 09:20:53;;;;;;;19.08;16.83;;;4.10;99.90;;;;;;4991268;28;20038;-76
2021/12/04 09:23:21;;;;;;;18.83;16.95;;;4.10;99.90;;;;;;4992613;28;20034;-75
2021/12/04 09:25:52;;;;;;;19.15;17.05;;;4.10;99.90;;;;;;4991240;28;20027;-73
2021/12/04 09:36:26;;;;;;;20.05;17.55;;;4.30;99.90;;;;;;4965819;28;20053;-75
2021/12/04 10:01:27;;;;;;;21.13;19.05;;;4.60;99.90;;;;;;4994897;28;20817;-75
2021/12/04 10:15:24;;;;;;;20.17;18.27;;;4.70;99.90;;;;;;4994520;28;20045;-75
2021/12/04 10:34:14;;;;;;;20.65;18.67;;;4.90;99.90;;;;;;4993625;28;20054;-75
2021/12/04 10:36:41;;;;;;;20.27;18.23;;;4.80;99.90;;;;;;5009276;28;20038;-78
2021/12/04 10:39:10;;;;;;;20.80;18.67;;;4.80;99.90;;;;;;4994639;28;20057;-74
2021/12/04 10:41:44;;;;;;;24.65;22.60;;;4.80;99.90;;;;;;4992960;28;20038;-75
2021/12/04 10:44:20;;;;;;;23.42;21.23;;;4.80;99.90;;;;;;4994829;28;20483;-76
2021/12/04 10:46:54;;;;;;;20.58;18.67;;;4.90;99.90;;;;;;4993990;28;20034;-75
2021/12/04 11:00:57;;;;;;;12.70;11.70;;;5.10;99.90;;;;;;4994036;28;20034;-77
2021/12/04 11:03:51;;;;;;;14.60;13.30;;;5.10;99.90;;;;;;4994473;28;20030;-75
2021/12/04 11:43:07;;;;;;;12.40;11.30;;;5.40;99.90;;;;;;4992691;28;20042;-75
2021/12/04 11:46:02;;;;;;;14.07;12.35;;;5.50;99.90;;;;;;4992655;28;20042;-76
2021/12/04 11:48:34;;;;;;;12.18;11.00;;;5.50;99.90;;;;;;4993514;28;20041;-76
2021/12/04 11:51:01;;;;;;;11.95;10.90;;;5.60;99.90;;;;;;4992416;28;20045;-76
2021/12/04 11:53:32;;;;;;;12.25;11.15;;;5.60;99.90;;;;;;4993530;28;20022;-76
2021/12/04 11:55:59;;;;;;;15.82;11.15;;;5.60;99.90;;;;;;4992912;28;20026;-76
2021/12/04 11:58:28;;;;;;;12.98;11.85;;;5.60;99.90;;;;;;4993310;28;20034;-76
2021/12/04 12:01:19;;;;;;;23.02;20.92;;;5.60;99.90;;;;;;4990944;28;20065;-76
2021/12/04 12:03:56;;;;;;;15.45;14.07;;;5.70;99.90;;;;;;4992450;28;20046;-79
2021/12/04 12:06:37;;;;;;;71.65;63.80;;;5.80;99.90;;;;;;4991881;28;20061;-75
2021/12/04 12:09:08;;;;;;;16.20;14.80;;;5.80;99.90;;;;;;4996081;28;20037;-76
2021/12/04 12:11:36;;;;;;;21.88;19.75;;;5.80;99.90;;;;;;4995068;28;20045;-75
2021/12/04 12:14:09;;;;;;;30.40;26.33;;;5.90;99.90;;;;;;5024736;28;20806;-75
2021/12/04 12:16:45;;;;;;;51.17;45.60;;;5.90;99.90;;;;;;5012828;28;20037;-74
2021/12/04 12:19:25;;;;;;;22.35;19.17;;;6.00;99.90;;;;;;5012990;28;20034;-74
2021/12/04 12:21:57;;;;;;;18.45;16.85;;;6.00;99.90;;;;;;5012351;28;20033;-74
2021/12/04 12:38:35;;;;;;;13.25;11.93;;;6.10;99.90;;;;;;5012723;28;20045;-75
2021/12/04 12:41:08;;;;;;;10.73;9.73;;;6.10;99.90;;;;;;5012059;28;20034;-75
2021/12/04 12:43:45;;;;;;;15.25;13.82;;;6.10;99.90;;;;;;5013015;28;20029;-75
2021/12/04 12:46:12;;;;;;;22.02;19.80;;;6.20;99.90;;;;;;5012990;28;20038;-74
2021/12/04 12:48:47;;;;;;;12.35;11.18;;;6.20;99.90;;;;;;5012595;28;20045;-75
2021/12/04 12:51:15;;;;;;;15.57;14.07;;;6.20;99.90;;;;;;5012701;28;20061;-75
2021/12/04 12:53:46;;;;;;;17.67;15.88;;;6.20;99.90;;;;;;5012697;28;20423;-75
2021/12/04 12:56:14;;;;;;;20.50;18.05;;;6.10;99.90;;;;;;5012699;28;20375;-75
2021/12/04 12:58:54;;;;;;;11.23;9.90;;;6.10;99.90;;;;;;5012362;28;20045;-75
2021/12/04 13:13:37;;;;;;;10.13;9.32;;;6.00;99.90;;;;;;5011760;28;20050;-74
2021/12/04 13:16:18;;;;;;;8.90;8.15;;;6.00;99.90;;;;;;5011458;28;20033;-74
2021/12/04 13:18:57;;;;;;;9.75;8.73;;;6.00;99.90;;;;;;5012102;28;20061;-74
2021/12/04 13:21:24;;;;;;;8.85;8.02;;;6.00;99.90;;;;;;5012379;28;20034;-74
2021/12/04 13:23:52;;;;;;;10.40;9.40;;;6.00;99.90;;;;;;5011555;28;20026;-75
2021/12/04 13:26:19;;;;;;;19.92;17.83;;;6.00;99.90;;;;;;4994389;28;20053;-74
2021/12/04 13:28:51;;;;;;;27.13;24.35;;;6.00;99.90;;;;;;4994783;28;20030;-74
2021/12/04 13:31:18;;;;;;;24.40;21.88;;;6.00;99.90;;;;;;5012273;28;20037;-74
2021/12/04 13:33:48;;;;;;;25.08;18.98;;;6.00;99.90;;;;;;5011741;28;20030;-73
2021/12/04 13:36:18;;;;;;;31.15;27.98;;;6.00;99.90;;;;;;5012231;28;20041;-75
2021/12/04 13:38:44;;;;;;;32.60;26.73;;;6.10;99.90;;;;;;5011961;28;20038;-74
2021/12/04 13:41:12;;;;;;;18.83;17.00;;;6.10;99.90;;;;;;5011408;28;20041;-75
2021/12/04 13:43:40;;;;;;;14.52;13.02;;;6.10;99.90;;;;;;5012142;28;20081;-72
2021/12/04 13:46:07;;;;;;;13.82;12.65;;;6.10;99.90;;;;;;5011104;28;20037;-73
2021/12/04 13:48:35;;;;;;;12.23;11.23;;;6.10;99.90;;;;;;5011860;28;20045;-73
2021/12/04 13:51:03;;;;;;;19.23;14.52;;;6.10;99.90;;;;;;5011281;28;20038;-73
2021/12/04 13:53:36;;;;;;;13.68;12.48;;;6.10;99.90;;;;;;5011962;28;20038;-74
2021/12/04 13:56:13;;;;;;;14.68;13.35;;;6.10;99.90;;;;;;5011304;28;20038;-75
2021/12/04 13:58:45;;;;;;;15.02;13.73;;;6.10;99.90;;;;;;5012012;28;20045;-75
2021/12/04 14:01:12;;;;;;;18.92;17.10;;;6.10;99.90;;;;;;5010887;28;20390;-75
2021/12/04 14:03:38;;;;;;;19.35;17.63;;;6.10;99.90;;;;;;5011442;28;20030;-74
2021/12/04 14:06:11;;;;;;;21.60;19.52;;;6.10;99.90;;;;;;5010823;28;20474;-74
2021/12/04 14:08:37;;;;;;;17.70;16.02;;;6.10;99.90;;;;;;5011866;28;20033;-74
2021/12/04 14:11:04;;;;;;;13.13;12.05;;;6.10;99.90;;;;;;5011502;28;20400;-74
2021/12/04 14:13:30;;;;;;;12.27;10.27;;;6.10;99.90;;;;;;5011678;28;20050;-73
2021/12/04 14:15:56;;;;;;;7.90;7.10;;;6.10;99.90;;;;;;5013435;28;20042;-74
2021/12/04 14:18:24;;;;;;;9.25;7.72;;;6.00;99.90;;;;;;5014933;28;20037;-74
2021/12/04 14:20:55;;;;;;;7.78;6.90;;;6.00;99.90;;;;;;5014749;28;20036;-75
2021/12/04 14:23:25;;;;;;;10.52;9.70;;;6.00;99.90;;;;;;5014917;28;20451;-74
2021/12/04 14:25:54;;;;;;;10.70;9.68;;;6.00;99.90;;;;;;5014508;28;20383;-74
2021/12/04 14:28:25;;;;;;;10.73;9.73;;;6.00;99.90;;;;;;5014612;28;20048;-73
2021/12/04 14:30:52;;;;;;;6.78;6.22;;;6.00;99.90;;;;;;4996925;28;20045;-76
2021/12/04 14:33:22;;;;;;;9.25;8.45;;;6.00;99.90;;;;;;5014835;28;20035;-74
2021/12/04 14:35:51;;;;;;;12.67;6.53;;;6.00;99.90;;;;;;5015127;28;20037;-76
2021/12/04 14:38:24;;;;;;;7.78;6.13;;;6.00;99.90;;;;;;5014465;28;20038;-75
2021/12/04 14:41:00;;;;;;;5.95;5.35;;;6.00;99.90;;;;;;5014934;28;20045;-75
2021/12/04 14:43:30;;;;;;;6.47;5.68;;;6.00;99.90;;;;;;5015089;28;20033;-75
2021/12/04 14:45:58;;;;;;;6.50;6.00;;;6.00;99.90;;;;;;5013840;28;20038;-76
2021/12/04 14:48:40;;;;;;;7.18;6.47;;;6.00;99.90;;;;;;4996302;28;20289;-75
2021/12/04 14:51:17;;;;;;;7.22;6.63;;;6.10;99.90;;;;;;5013791;28;20044;-76
2021/12/04 14:53:56;;;;;;;7.80;7.13;;;6.10;99.90;;;;;;5014413;28;20410;-75
2021/12/04 14:56:25;;;;;;;9.38;8.57;;;6.10;99.90;;;;;;4996923;28;20038;-76
2021/12/04 14:58:52;;;;;;;9.10;8.30;;;6.10;99.90;;;;;;5024587;28;20037;-74
2021/12/04 15:01:21;;;;;;;7.75;7.15;;;6.10;99.90;;;;;;5033769;28;20040;-75
2021/12/04 15:03:58;;;;;;;9.27;8.45;;;6.10;99.90;;;;;;5033975;28;20037;-76
2021/12/04 15:06:27;;;;;;;10.52;9.52;;;6.10;99.90;;;;;;5015323;28;20407;-76
2021/12/04 15:08:59;;;;;;;13.32;12.23;;;6.20;99.90;;;;;;5016061;28;20056;-78
2021/12/04 15:11:30;;;;;;;11.55;10.60;;;6.20;99.90;;;;;;5013145;28;20467;-75
2021/12/04 15:14:04;;;;;;;;;;;6.20;99.90;;;;;;5012958;28;20052;-75
2021/12/04 15:16:44;;;;;;;21.73;19.83;;;6.20;99.90;;;;;;5013904;28;20307;-75
2021/12/04 15:19:17;;;;;;;16.67;14.93;;;6.30;99.90;;;;;;5012853;28;20045;-76
2021/12/04 15:21:50;;;;;;;17.10;15.32;;;6.30;99.90;;;;;;5013898;28;20034;-76
2021/12/04 15:24:24;;;;;;;18.90;14.55;;;6.40;99.90;;;;;;5013456;28;20033;-76
2021/12/04 15:27:03;;;;;;;32.70;29.20;;;6.30;99.90;;;;;;5013316;28;20048;-76
2021/12/04 15:29:33;;;;;;;49.08;38.78;;;6.40;99.90;;;;;;5013580;28;20034;-76
2021/12/04 15:32:06;;;;;;;48.15;42.13;;;6.40;99.90;;;;;;4995081;28;20050;-77
2021/12/04 15:34:48;;;;;;;113.07;96.40;;;6.40;99.90;;;;;;5013816;28;20033;-76
2021/12/04 15:37:40;;;;;;;77.85;64.53;;;6.40;99.90;;;;;;4995406;28;20037;-76
2021/12/04 15:40:23;;;;;;;78.05;67.13;;;6.40;99.90;;;;;;4995593;28;20387;-76
2021/12/04 15:43:11;;;;;;;22.17;20.17;;;6.40;99.90;;;;;;5013575;28;20038;-76
2021/12/04 15:45:53;;;;;;;15.93;14.45;;;6.30;99.90;;;;;;5013488;28;20462;-77
2021/12/04 15:48:43;;;;;;;41.40;36.97;;;6.30;99.90;;;;;;5013453;28;20364;-76
2021/12/04 15:52:47;;;;;;;57.08;49.50;;;6.30;99.90;;;;;;5021286;28;20483;-76
2021/12/04 15:54:06;;;;;;;44.22;39.53;;;6.40;99.90;;;;;;5009482;28;20038;-76
2021/12/04 15:56:41;;;;;;;54.72;48.45;;;6.40;99.90;;;;;;5031884;28;20363;-77
2021/12/04 15:59:19;;;;;;;92.38;81.95;;;6.50;99.90;;;;;;5027508;28;20478;-76
2021/12/04 16:01:47;;;;;;;33.65;30.27;;;6.60;99.90;;;;;;5012925;28;20026;-76
2021/12/04 16:04:29;;;;;;;118.90;107.78;;;6.60;99.90;;;;;;5012308;28;20045;-75
2021/12/04 16:06:57;;;;;;;23.80;18.92;;;6.60;99.90;;;;;;5013029;28;20034;-75
2021/12/04 16:09:27;;;;;;;49.28;43.03;;;6.60;99.90;;;;;;4996457;28;20041;-75
2021/12/04 16:12:03;;;;;;;47.67;43.47;;;6.60;99.90;;;;;;5029076;28;20474;-75
2021/12/04 16:14:38;;;;;;;21.48;17.63;;;6.60;99.90;;;;;;5014356;28;20764;-75